sensor_id;sensor_type;location;lat;lon;timestamp;P1;durP1;ratioP1;P2;durP2;ratioP2
29812;SDS011;16707;48.106;11.548;2023-02-23T00:01:25;17.95;;;10.45;;
29812;SDS011;16707;48.106;11.548;2023-02-23T00:03:54;17.92;;;10.55;;
29812;SDS011;16707;48.106;11.548;2023-02-23T00:06:22;15.13;;;9.20;;
29812;SDS011;16707;48.106;11.548;2023-02-23T00:08:59;14.07;;;9.60;;
29812;SDS011;16707;48.106;11.548;2023-02-23T00:11:26;16.42;;;9.50;;
29812;SDS011;16707;48.106;11.548;2023-02-23T00:13:54;16.08;;;9.65;;
29812;SDS011;16707;48.106;11.548;2023-02-23T00:16:29;17.42;;;10.25;;
29812;SDS011;16707;48.106;11.548;2023-02-23T00:18:56;19.13;;;10.70;;
29812;SDS011;16707;48.106;11.548;2023-02-23T00:21:25;17.63;;;10.25;;
29812;SDS011;16707;48.106;11.548;2023-02-23T00:24:00;16.17;;;9.55;;
29812;SDS011;16707;48.106;11.548;2023-02-23T00:26:29;15.50;;;9.63;;
29812;SDS011;16707;48.106;11.548;2023-02-23T00:28:59;16.05;;;10.13;;
29812;SDS011;16707;48.106;11.548;2023-02-23T00:31:28;19.35;;;10.63;;
29812;SDS011;16707;48.106;11.548;2023-02-23T00:33:56;18.13;;;11.02;;
29812;SDS011;16707;48.106;11.548;2023-02-23T00:36:28;17.63;;;10.25;;
29812;SDS011;16707;48.106;11.548;2023-02-23T00:39:07;15.85;;;10.38;;
29812;SDS011;16707;48.106;11.548;2023-02-23T00:41:45;17.15;;;10.95;;
29812;SDS011;16707;48.106;11.548;2023-02-23T00:44:20;19.92;;;12.02;;
29812;SDS011;16707;48.106;11.548;2023-02-23T00:46:50;16.50;;;10.55;;
29812;SDS011;16707;48.106;11.548;2023-02-23T00:49:20;20.73;;;11.38;;
29812;SDS011;16707;48.106;11.548;2023-02-23T00:51:48;17.63;;;11.00;;
29812;SDS011;16707;48.106;11.548;2023-02-23T00:54:16;16.10;;;11.80;;
29812;SDS011;16707;48.106;11.548;2023-02-23T00:56:45;18.55;;;11.68;;
29812;SDS011;16707;48.106;11.548;2023-02-23T00:59:13;18.30;;;11.20;;
29812;SDS011;16707;48.106;11.548;2023-02-23T01:01:40;16.75;;;11.10;;
29812;SDS011;16707;48.106;11.548;2023-02-23T01:04:12;17.27;;;11.07;;
29812;SDS011;16707;48.106;11.548;2023-02-23T01:06:40;18.17;;;11.20;;
29812;SDS011;16707;48.106;11.548;2023-02-23T01:09:08;21.08;;;12.82;;
29812;SDS011;16707;48.106;11.548;2023-02-23T01:11:38;18.55;;;10.70;;
29812;SDS011;16707;48.106;11.548;2023-02-23T01:14:10;18.58;;;11.23;;
29812;SDS011;16707;48.106;11.548;2023-02-23T01:16:37;22.52;;;12.43;;
29812;SDS011;16707;48.106;11.548;2023-02-23T01:19:04;19.65;;;11.90;;
29812;SDS011;16707;48.106;11.548;2023-02-23T01:21:40;24.53;;;12.40;;
29812;SDS011;16707;48.106;11.548;2023-02-23T01:24:10;18.83;;;11.48;;
29812;SDS011;16707;48.106;11.548;2023-02-23T01:26:41;18.77;;;10.68;;
29812;SDS011;16707;48.106;11.548;2023-02-23T01:29:10;18.52;;;12.45;;
29812;SDS011;16707;48.106;11.548;2023-02-23T01:31:40;17.73;;;11.30;;
29812;SDS011;16707;48.106;11.548;2023-02-23T01:34:09;23.20;;;11.02;;
29812;SDS011;16707;48.106;11.548;2023-02-23T01:36:38;17.05;;;10.30;;
29812;SDS011;16707;48.106;11.548;2023-02-23T01:39:09;16.02;;;9.35;;
29812;SDS011;16707;48.106;11.548;2023-02-23T01:41:41;14.55;;;9.05;;
29812;SDS011;16707;48.106;11.548;2023-02-23T01:47:22;21.55;;;11.70;;
29812;SDS011;16707;48.106;11.548;2023-02-23T01:49:50;19.27;;;13.20;;
29812;SDS011;16707;48.106;11.548;2023-02-23T01:52:18;19.65;;;12.02;;
29812;SDS011;16707;48.106;11.548;2023-02-23T01:54:46;20.08;;;12.05;;
29812;SDS011;16707;48.106;11.548;2023-02-23T01:57:19;24.33;;;13.18;;
29812;SDS011;16707;48.106;11.548;2023-02-23T01:59:51;24.80;;;12.88;;
29812;SDS011;16707;48.106;11.548;2023-02-23T02:02:19;19.58;;;11.55;;
29812;SDS011;16707;48.106;11.548;2023-02-23T02:04:48;18.52;;;11.43;;
29812;SDS011;16707;48.106;11.548;2023-02-23T02:07:19;21.50;;;12.32;;
29812;SDS011;16707;48.106;11.548;2023-02-23T02:09:52;20.35;;;11.85;;
29812;SDS011;16707;48.106;11.548;2023-02-23T02:12:41;19.55;;;12.30;;
29812;SDS011;16707;48.106;11.548;2023-02-23T02:15:10;18.85;;;11.63;;
29812;SDS011;16707;48.106;11.548;2023-02-23T02:17:45;20.20;;;11.18;;
29812;SDS011;16707;48.106;11.548;2023-02-23T02:20:42;19.05;;;11.77;;
29812;SDS011;16707;48.106;11.548;2023-02-23T02:26:32;18.80;;;11.15;;
29812;SDS011;16707;48.106;11.548;2023-02-23T02:35:35;16.50;;;10.93;;
29812;SDS011;16707;48.106;11.548;2023-02-23T02:38:57;16.40;;;10.82;;
29812;SDS011;16707;48.106;11.548;2023-02-23T02:41:35;15.43;;;10.98;;
29812;SDS011;16707;48.106;11.548;2023-02-23T02:44:21;19.90;;;10.98;;
29812;SDS011;16707;48.106;11.548;2023-02-23T02:46:57;17.52;;;10.85;;
29812;SDS011;16707;48.106;11.548;2023-02-23T02:49:35;17.13;;;10.70;;
29812;SDS011;16707;48.106;11.548;2023-02-23T02:52:14;18.63;;;10.38;;
29812;SDS011;16707;48.106;11.548;2023-02-23T02:54:54;18.60;;;11.27;;
29812;SDS011;16707;48.106;11.548;2023-02-23T02:57:29;18.52;;;10.80;;
29812;SDS011;16707;48.106;11.548;2023-02-23T03:00:01;14.38;;;9.82;;
29812;SDS011;16707;48.106;11.548;2023-02-23T03:02:46;18.60;;;10.25;;
29812;SDS011;16707;48.106;11.548;2023-02-23T03:05:39;16.15;;;9.93;;
29812;SDS011;16707;48.106;11.548;2023-02-23T03:08:30;18.50;;;10.90;;
29812;SDS011;16707;48.106;11.548;2023-02-23T03:11:21;17.17;;;10.52;;
29812;SDS011;16707;48.106;11.548;2023-02-23T03:14:16;17.88;;;10.27;;
29812;SDS011;16707;48.106;11.548;2023-02-23T03:17:12;19.15;;;11.55;;
29812;SDS011;16707;48.106;11.548;2023-02-23T03:20:10;16.73;;;11.13;;
29812;SDS011;16707;48.106;11.548;2023-02-23T03:25:55;20.77;;;13.05;;
29812;SDS011;16707;48.106;11.548;2023-02-23T03:28:57;18.08;;;10.95;;
29812;SDS011;16707;48.106;11.548;2023-02-23T03:31:48;17.08;;;11.00;;
29812;SDS011;16707;48.106;11.548;2023-02-23T03:34:39;12.23;;;7.90;;
29812;SDS011;16707;48.106;11.548;2023-02-23T03:37:28;12.20;;;7.22;;
29812;SDS011;16707;48.106;11.548;2023-02-23T03:40:17;13.45;;;7.75;;
29812;SDS011;16707;48.106;11.548;2023-02-23T03:43:04;11.00;;;7.10;;
29812;SDS011;16707;48.106;11.548;2023-02-23T03:45:54;15.27;;;8.73;;
29812;SDS011;16707;48.106;11.548;2023-02-23T03:48:44;13.57;;;8.95;;
29812;SDS011;16707;48.106;11.548;2023-02-23T03:51:36;14.57;;;9.38;;
29812;SDS011;16707;48.106;11.548;2023-02-23T03:54:26;22.48;;;10.93;;
29812;SDS011;16707;48.106;11.548;2023-02-23T03:57:18;13.80;;;9.40;;
29812;SDS011;16707;48.106;11.548;2023-02-23T04:00:08;17.75;;;10.07;;
29812;SDS011;16707;48.106;11.548;2023-02-23T04:03:02;16.23;;;9.65;;
29812;SDS011;16707;48.106;11.548;2023-02-23T04:05:51;14.30;;;9.48;;
29812;SDS011;16707;48.106;11.548;2023-02-23T04:08:41;12.40;;;8.70;;
29812;SDS011;16707;48.106;11.548;2023-02-23T04:11:27;12.43;;;7.82;;
29812;SDS011;16707;48.106;11.548;2023-02-23T04:14:17;15.75;;;8.75;;
29812;SDS011;16707;48.106;11.548;2023-02-23T04:16:47;12.75;;;9.13;;
29812;SDS011;16707;48.106;11.548;2023-02-23T04:19:19;14.20;;;9.00;;
29812;SDS011;16707;48.106;11.548;2023-02-23T04:21:53;14.70;;;9.32;;
29812;SDS011;16707;48.106;11.548;2023-02-23T04:26:57;14.05;;;9.05;;
29812;SDS011;16707;48.106;11.548;2023-02-23T04:29:27;15.30;;;9.43;;
29812;SDS011;16707;48.106;11.548;2023-02-23T04:31:53;16.38;;;9.63;;
29812;SDS011;16707;48.106;11.548;2023-02-23T04:34:24;18.05;;;10.05;;
29812;SDS011;16707;48.106;11.548;2023-02-23T04:39:29;14.45;;;9.27;;
29812;SDS011;16707;48.106;11.548;2023-02-23T04:41:56;14.63;;;9.35;;
29812;SDS011;16707;48.106;11.548;2023-02-23T04:44:28;17.63;;;9.32;;
29812;SDS011;16707;48.106;11.548;2023-02-23T04:46:56;12.23;;;8.98;;
29812;SDS011;16707;48.106;11.548;2023-02-23T04:49:25;14.25;;;9.57;;
29812;SDS011;16707;48.106;11.548;2023-02-23T04:51:52;14.88;;;9.30;;
29812;SDS011;16707;48.106;11.548;2023-02-23T04:54:19;11.50;;;8.07;;
29812;SDS011;16707;48.106;11.548;2023-02-23T04:56:46;13.70;;;8.63;;
29812;SDS011;16707;48.106;11.548;2023-02-23T04:59:16;15.68;;;9.60;;
29812;SDS011;16707;48.106;11.548;2023-02-23T05:01:48;15.93;;;9.30;;
29812;SDS011;16707;48.106;11.548;2023-02-23T05:04:19;13.80;;;10.45;;
29812;SDS011;16707;48.106;11.548;2023-02-23T05:06:55;15.02;;;10.25;;
29812;SDS011;16707;48.106;11.548;2023-02-23T05:09:29;16.50;;;10.45;;
29812;SDS011;16707;48.106;11.548;2023-02-23T05:11:56;14.82;;;9.75;;
29812;SDS011;16707;48.106;11.548;2023-02-23T05:14:24;17.98;;;10.70;;
29812;SDS011;16707;48.106;11.548;2023-02-23T05:16:56;16.30;;;10.80;;
29812;SDS011;16707;48.106;11.548;2023-02-23T05:19:23;18.85;;;9.82;;
29812;SDS011;16707;48.106;11.548;2023-02-23T05:21:50;14.32;;;9.43;;
29812;SDS011;16707;48.106;11.548;2023-02-23T05:24:18;13.15;;;9.25;;
29812;SDS011;16707;48.106;11.548;2023-02-23T05:26:46;17.80;;;9.70;;
29812;SDS011;16707;48.106;11.548;2023-02-23T05:29:19;15.00;;;10.13;;
29812;SDS011;16707;48.106;11.548;2023-02-23T05:31:46;12.93;;;8.60;;
29812;SDS011;16707;48.106;11.548;2023-02-23T05:34:13;14.35;;;8.60;;
29812;SDS011;16707;48.106;11.548;2023-02-23T05:36:41;14.48;;;8.82;;
29812;SDS011;16707;48.106;11.548;2023-02-23T05:39:08;11.02;;;8.57;;
29812;SDS011;16707;48.106;11.548;2023-02-23T05:41:39;12.20;;;8.80;;
29812;SDS011;16707;48.106;11.548;2023-02-23T05:44:06;14.48;;;9.05;;
29812;SDS011;16707;48.106;11.548;2023-02-23T05:46:37;13.65;;;8.48;;
29812;SDS011;16707;48.106;11.548;2023-02-23T05:49:04;14.35;;;9.63;;
29812;SDS011;16707;48.106;11.548;2023-02-23T05:51:32;15.77;;;9.13;;
29812;SDS011;16707;48.106;11.548;2023-02-23T05:54:03;13.40;;;8.10;;
29812;SDS011;16707;48.106;11.548;2023-02-23T05:56:30;15.80;;;9.30;;
29812;SDS011;16707;48.106;11.548;2023-02-23T05:58:59;15.57;;;9.82;;
29812;SDS011;16707;48.106;11.548;2023-02-23T06:01:26;12.82;;;8.57;;
29812;SDS011;16707;48.106;11.548;2023-02-23T06:03:56;11.27;;;8.27;;
29812;SDS011;16707;48.106;11.548;2023-02-23T06:06:23;12.90;;;8.27;;
29812;SDS011;16707;48.106;11.548;2023-02-23T06:08:53;17.35;;;8.68;;
29812;SDS011;16707;48.106;11.548;2023-02-23T06:11:21;12.25;;;7.88;;
29812;SDS011;16707;48.106;11.548;2023-02-23T06:13:48;11.40;;;7.65;;
29812;SDS011;16707;48.106;11.548;2023-02-23T06:16:19;13.77;;;7.47;;
29812;SDS011;16707;48.106;11.548;2023-02-23T06:18:46;14.10;;;7.78;;
29812;SDS011;16707;48.106;11.548;2023-02-23T06:21:13;12.40;;;7.10;;
29812;SDS011;16707;48.106;11.548;2023-02-23T06:23:40;12.27;;;7.47;;
29812;SDS011;16707;48.106;11.548;2023-02-23T06:26:10;11.43;;;6.93;;
29812;SDS011;16707;48.106;11.548;2023-02-23T06:28:37;12.57;;;8.10;;
29812;SDS011;16707;48.106;11.548;2023-02-23T06:31:07;15.27;;;8.35;;
29812;SDS011;16707;48.106;11.548;2023-02-23T06:36:09;12.85;;;7.68;;
29812;SDS011;16707;48.106;11.548;2023-02-23T06:38:36;12.43;;;7.93;;
29812;SDS011;16707;48.106;11.548;2023-02-23T06:41:09;10.27;;;6.65;;
29812;SDS011;16707;48.106;11.548;2023-02-23T06:43:36;15.05;;;7.47;;
29812;SDS011;16707;48.106;11.548;2023-02-23T06:46:06;13.55;;;8.20;;
29812;SDS011;16707;48.106;11.548;2023-02-23T06:48:33;9.63;;;7.10;;
29812;SDS011;16707;48.106;11.548;2023-02-23T06:51:04;15.48;;;7.50;;
29812;SDS011;16707;48.106;11.548;2023-02-23T06:53:35;13.70;;;7.18;;
29812;SDS011;16707;48.106;11.548;2023-02-23T06:56:05;16.15;;;7.18;;
29812;SDS011;16707;48.106;11.548;2023-02-23T06:58:32;11.30;;;7.40;;
29812;SDS011;16707;48.106;11.548;2023-02-23T07:01:02;12.48;;;7.68;;
29812;SDS011;16707;48.106;11.548;2023-02-23T07:03:32;14.48;;;8.18;;
29812;SDS011;16707;48.106;11.548;2023-02-23T07:05:59;14.82;;;7.45;;
29812;SDS011;16707;48.106;11.548;2023-02-23T07:08:32;13.23;;;7.80;;
29812;SDS011;16707;48.106;11.548;2023-02-23T07:11:05;14.65;;;8.35;;
29812;SDS011;16707;48.106;11.548;2023-02-23T07:13:32;11.98;;;7.10;;
29812;SDS011;16707;48.106;11.548;2023-02-23T07:15:59;15.38;;;7.97;;
29812;SDS011;16707;48.106;11.548;2023-02-23T07:18:32;14.77;;;6.90;;
29812;SDS011;16707;48.106;11.548;2023-02-23T07:20:58;11.63;;;7.22;;
29812;SDS011;16707;48.106;11.548;2023-02-23T07:23:28;15.82;;;9.77;;
29812;SDS011;16707;48.106;11.548;2023-02-23T07:25:56;16.15;;;7.78;;
29812;SDS011;16707;48.106;11.548;2023-02-23T07:28:23;11.00;;;7.93;;
29812;SDS011;16707;48.106;11.548;2023-02-23T07:30:53;13.00;;;7.28;;
29812;SDS011;16707;48.106;11.548;2023-02-23T07:33:21;11.70;;;7.20;;
29812;SDS011;16707;48.106;11.548;2023-02-23T07:35:48;11.30;;;7.03;;
29812;SDS011;16707;48.106;11.548;2023-02-23T07:38:21;13.88;;;8.38;;
29812;SDS011;16707;48.106;11.548;2023-02-23T07:40:48;14.63;;;7.95;;
29812;SDS011;16707;48.106;11.548;2023-02-23T07:43:20;13.48;;;7.60;;
29812;SDS011;16707;48.106;11.548;2023-02-23T07:45:48;14.75;;;8.07;;
29812;SDS011;16707;48.106;11.548;2023-02-23T07:48:20;10.68;;;7.55;;
29812;SDS011;16707;48.106;11.548;2023-02-23T07:50:50;14.18;;;8.05;;
29812;SDS011;16707;48.106;11.548;2023-02-23T07:53:17;11.57;;;8.05;;
29812;SDS011;16707;48.106;11.548;2023-02-23T07:55:43;14.25;;;8.07;;
29812;SDS011;16707;48.106;11.548;2023-02-23T07:58:10;12.30;;;8.05;;
29812;SDS011;16707;48.106;11.548;2023-02-23T08:00:39;13.20;;;7.55;;
29812;SDS011;16707;48.106;11.548;2023-02-23T08:03:09;11.77;;;7.95;;
29812;SDS011;16707;48.106;11.548;2023-02-23T08:05:36;13.18;;;7.82;;
29812;SDS011;16707;48.106;11.548;2023-02-23T08:08:04;15.30;;;8.05;;
29812;SDS011;16707;48.106;11.548;2023-02-23T08:10:31;12.02;;;7.63;;
29812;SDS011;16707;48.106;11.548;2023-02-23T08:13:01;14.95;;;7.60;;
29812;SDS011;16707;48.106;11.548;2023-02-23T08:15:28;11.70;;;7.38;;
29812;SDS011;16707;48.106;11.548;2023-02-23T08:17:56;14.02;;;7.53;;
29812;SDS011;16707;48.106;11.548;2023-02-23T08:20:23;11.93;;;7.47;;
29812;SDS011;16707;48.106;11.548;2023-02-23T08:22:51;11.30;;;6.80;;
29812;SDS011;16707;48.106;11.548;2023-02-23T08:25:22;12.63;;;7.57;;
29812;SDS011;16707;48.106;11.548;2023-02-23T08:27:49;11.77;;;7.07;;
29812;SDS011;16707;48.106;11.548;2023-02-23T08:30:17;13.68;;;7.70;;
29812;SDS011;16707;48.106;11.548;2023-02-23T08:32:47;12.27;;;7.35;;
29812;SDS011;16707;48.106;11.548;2023-02-23T08:35:16;12.98;;;7.53;;
29812;SDS011;16707;48.106;11.548;2023-02-23T08:37:44;12.07;;;7.88;;
29812;SDS011;16707;48.106;11.548;2023-02-23T08:40:14;13.52;;;6.93;;
29812;SDS011;16707;48.106;11.548;2023-02-23T08:42:42;16.00;;;8.20;;
29812;SDS011;16707;48.106;11.548;2023-02-23T08:45:10;11.73;;;6.97;;
29812;SDS011;16707;48.106;11.548;2023-02-23T08:47:37;12.93;;;7.68;;
29812;SDS011;16707;48.106;11.548;2023-02-23T08:50:04;15.20;;;8.38;;
29812;SDS011;16707;48.106;11.548;2023-02-23T08:52:33;11.38;;;7.90;;
29812;SDS011;16707;48.106;11.548;2023-02-23T08:57:52;12.45;;;8.73;;
29812;SDS011;16707;48.106;11.548;2023-02-23T09:00:19;17.95;;;10.35;;
29812;SDS011;16707;48.106;11.548;2023-02-23T09:02:52;15.10;;;9.68;;
29812;SDS011;16707;48.106;11.548;2023-02-23T09:05:19;19.42;;;10.73;;
29812;SDS011;16707;48.106;11.548;2023-02-23T09:07:47;18.42;;;9.85;;
29812;SDS011;16707;48.106;11.548;2023-02-23T09:10:15;15.27;;;10.02;;
29812;SDS011;16707;48.106;11.548;2023-02-23T09:12:44;16.13;;;9.75;;
29812;SDS011;16707;48.106;11.548;2023-02-23T09:15:11;19.17;;;10.43;;
29812;SDS011;16707;48.106;11.548;2023-02-23T09:17:38;16.25;;;9.68;;
29812;SDS011;16707;48.106;11.548;2023-02-23T09:20:09;14.68;;;9.07;;
29812;SDS011;16707;48.106;11.548;2023-02-23T09:22:37;16.60;;;10.02;;
29812;SDS011;16707;48.106;11.548;2023-02-23T09:25:06;16.10;;;9.75;;
29812;SDS011;16707;48.106;11.548;2023-02-23T09:27:34;15.75;;;9.18;;
29812;SDS011;16707;48.106;11.548;2023-02-23T09:30:01;13.85;;;8.98;;
29812;SDS011;16707;48.106;11.548;2023-02-23T09:32:29;14.52;;;8.45;;
29812;SDS011;16707;48.106;11.548;2023-02-23T09:35:00;14.43;;;8.32;;
29812;SDS011;16707;48.106;11.548;2023-02-23T09:37:27;10.18;;;7.25;;
29812;SDS011;16707;48.106;11.548;2023-02-23T09:39:53;10.82;;;7.63;;
29812;SDS011;16707;48.106;11.548;2023-02-23T09:42:26;11.57;;;6.93;;
29812;SDS011;16707;48.106;11.548;2023-02-23T09:45:04;12.45;;;6.32;;
29812;SDS011;16707;48.106;11.548;2023-02-23T09:47:46;9.25;;;6.15;;
29812;SDS011;16707;48.106;11.548;2023-02-23T09:50:26;8.82;;;6.50;;
29812;SDS011;16707;48.106;11.548;2023-02-23T09:52:56;11.40;;;6.30;;
29812;SDS011;16707;48.106;11.548;2023-02-23T09:55:28;12.13;;;6.63;;
29812;SDS011;16707;48.106;11.548;2023-02-23T09:57:58;8.98;;;6.43;;
29812;SDS011;16707;48.106;11.548;2023-02-23T10:00:30;9.70;;;5.88;;
29812;SDS011;16707;48.106;11.548;2023-02-23T10:03:10;9.52;;;6.20;;
29812;SDS011;16707;48.106;11.548;2023-02-23T10:05:42;10.40;;;6.10;;
29812;SDS011;16707;48.106;11.548;2023-02-23T10:08:20;10.05;;;6.20;;
29812;SDS011;16707;48.106;11.548;2023-02-23T10:10:54;7.25;;;5.60;;
29812;SDS011;16707;48.106;11.548;2023-02-23T10:13:34;9.30;;;6.28;;
29812;SDS011;16707;48.106;11.548;2023-02-23T10:16:10;9.32;;;6.07;;
29812;SDS011;16707;48.106;11.548;2023-02-23T10:18:44;11.68;;;6.63;;
29812;SDS011;16707;48.106;11.548;2023-02-23T10:21:22;12.00;;;6.20;;
29812;SDS011;16707;48.106;11.548;2023-02-23T10:24:00;10.20;;;6.80;;
29812;SDS011;16707;48.106;11.548;2023-02-23T10:26:33;11.98;;;6.78;;
29812;SDS011;16707;48.106;11.548;2023-02-23T10:29:13;8.13;;;5.85;;
29812;SDS011;16707;48.106;11.548;2023-02-23T10:31:47;10.55;;;6.28;;
29812;SDS011;16707;48.106;11.548;2023-02-23T10:34:16;10.13;;;6.32;;
29812;SDS011;16707;48.106;11.548;2023-02-23T10:36:45;9.05;;;6.40;;
29812;SDS011;16707;48.106;11.548;2023-02-23T10:39:17;9.05;;;5.57;;
29812;SDS011;16707;48.106;11.548;2023-02-23T10:41:44;6.93;;;4.90;;
29812;SDS011;16707;48.106;11.548;2023-02-23T10:44:16;8.15;;;3.97;;
29812;SDS011;16707;48.106;11.548;2023-02-23T10:46:48;6.97;;;3.80;;
29812;SDS011;16707;48.106;11.548;2023-02-23T10:49:19;7.60;;;4.10;;
29812;SDS011;16707;48.106;11.548;2023-02-23T10:51:49;10.85;;;4.95;;
29812;SDS011;16707;48.106;11.548;2023-02-23T10:54:35;6.85;;;4.40;;
29812;SDS011;16707;48.106;11.548;2023-02-23T10:57:08;5.63;;;4.35;;
29812;SDS011;16707;48.106;11.548;2023-02-23T10:59:51;6.78;;;3.92;;
29812;SDS011;16707;48.106;11.548;2023-02-23T11:02:25;10.10;;;4.00;;
29812;SDS011;16707;48.106;11.548;2023-02-23T11:04:56;6.50;;;4.50;;
29812;SDS011;16707;48.106;11.548;2023-02-23T11:07:26;7.07;;;4.28;;
29812;SDS011;16707;48.106;11.548;2023-02-23T11:09:55;7.10;;;4.70;;
29812;SDS011;16707;48.106;11.548;2023-02-23T11:12:23;6.32;;;4.05;;
29812;SDS011;16707;48.106;11.548;2023-02-23T11:14:56;5.68;;;3.28;;
29812;SDS011;16707;48.106;11.548;2023-02-23T11:17:25;6.57;;;3.97;;
29812;SDS011;16707;48.106;11.548;2023-02-23T11:19:58;7.90;;;4.68;;
29812;SDS011;16707;48.106;11.548;2023-02-23T11:22:32;6.80;;;3.80;;
29812;SDS011;16707;48.106;11.548;2023-02-23T11:25:23;5.95;;;3.50;;
29812;SDS011;16707;48.106;11.548;2023-02-23T11:27:53;6.57;;;3.75;;
29812;SDS011;16707;48.106;11.548;2023-02-23T11:30:27;5.40;;;3.55;;
29812;SDS011;16707;48.106;11.548;2023-02-23T11:33:01;7.40;;;4.50;;
29812;SDS011;16707;48.106;11.548;2023-02-23T11:35:35;4.90;;;3.45;;
29812;SDS011;16707;48.106;11.548;2023-02-23T11:38:15;7.22;;;3.92;;
29812;SDS011;16707;48.106;11.548;2023-02-23T11:40:57;7.97;;;4.90;;
29812;SDS011;16707;48.106;11.548;2023-02-23T11:43:25;6.47;;;4.53;;
29812;SDS011;16707;48.106;11.548;2023-02-23T11:45:54;7.43;;;4.20;;
29812;SDS011;16707;48.106;11.548;2023-02-23T11:48:24;10.32;;;5.63;;
29812;SDS011;16707;48.106;11.548;2023-02-23T11:50:55;8.43;;;5.00;;
29812;SDS011;16707;48.106;11.548;2023-02-23T11:53:27;8.82;;;5.75;;
29812;SDS011;16707;48.106;11.548;2023-02-23T11:55:57;9.00;;;6.03;;
29812;SDS011;16707;48.106;11.548;2023-02-23T11:58:33;6.70;;;5.10;;
29812;SDS011;16707;48.106;11.548;2023-02-23T12:01:05;8.65;;;4.95;;
29812;SDS011;16707;48.106;11.548;2023-02-23T12:03:36;10.63;;;4.47;;
29812;SDS011;16707;48.106;11.548;2023-02-23T12:06:09;7.53;;;4.45;;
29812;SDS011;16707;48.106;11.548;2023-02-23T12:08:38;6.60;;;4.05;;
29812;SDS011;16707;48.106;11.548;2023-02-23T12:11:11;8.00;;;5.25;;
29812;SDS011;16707;48.106;11.548;2023-02-23T12:13:45;10.07;;;4.93;;
29812;SDS011;16707;48.106;11.548;2023-02-23T12:16:18;7.07;;;5.00;;
29812;SDS011;16707;48.106;11.548;2023-02-23T12:18:51;8.73;;;4.97;;
29812;SDS011;16707;48.106;11.548;2023-02-23T12:21:28;6.90;;;5.82;;
29812;SDS011;16707;48.106;11.548;2023-02-23T12:24:09;8.25;;;5.50;;
29812;SDS011;16707;48.106;11.548;2023-02-23T12:26:43;9.40;;;6.32;;
29812;SDS011;16707;48.106;11.548;2023-02-23T12:29:16;8.65;;;4.63;;
29812;SDS011;16707;48.106;11.548;2023-02-23T12:31:50;8.00;;;4.65;;
29812;SDS011;16707;48.106;11.548;2023-02-23T12:34:26;8.73;;;4.70;;
29812;SDS011;16707;48.106;11.548;2023-02-23T12:39:31;6.93;;;4.78;;
29812;SDS011;16707;48.106;11.548;2023-02-23T12:42:06;8.90;;;5.22;;
29812;SDS011;16707;48.106;11.548;2023-02-23T12:44:42;7.93;;;4.50;;
29812;SDS011;16707;48.106;11.548;2023-02-23T12:47:20;12.77;;;4.88;;
29812;SDS011;16707;48.106;11.548;2023-02-23T12:49:58;6.65;;;4.07;;
29812;SDS011;16707;48.106;11.548;2023-02-23T12:55:01;6.95;;;4.40;;
29812;SDS011;16707;48.106;11.548;2023-02-23T12:57:29;7.13;;;4.03;;
29812;SDS011;16707;48.106;11.548;2023-02-23T13:03:10;5.80;;;4.30;;
29812;SDS011;16707;48.106;11.548;2023-02-23T13:05:50;6.85;;;4.45;;
29812;SDS011;16707;48.106;11.548;2023-02-23T13:08:36;6.85;;;4.35;;
29812;SDS011;16707;48.106;11.548;2023-02-23T13:11:27;6.32;;;3.88;;
29812;SDS011;16707;48.106;11.548;2023-02-23T13:14:15;6.25;;;3.92;;
29812;SDS011;16707;48.106;11.548;2023-02-23T13:16:51;6.22;;;3.38;;
29812;SDS011;16707;48.106;11.548;2023-02-23T13:19:25;7.43;;;3.28;;
29812;SDS011;16707;48.106;11.548;2023-02-23T13:22:00;5.72;;;4.05;;
29812;SDS011;16707;48.106;11.548;2023-02-23T13:24:46;4.93;;;3.30;;
29812;SDS011;16707;48.106;11.548;2023-02-23T13:27:15;5.75;;;3.58;;
29812;SDS011;16707;48.106;11.548;2023-02-23T13:29:51;6.18;;;4.28;;
29812;SDS011;16707;48.106;11.548;2023-02-23T13:32:21;4.75;;;3.72;;
29812;SDS011;16707;48.106;11.548;2023-02-23T13:34:55;6.28;;;3.90;;
29812;SDS011;16707;48.106;11.548;2023-02-23T13:37:25;5.68;;;3.33;;
29812;SDS011;16707;48.106;11.548;2023-02-23T13:40:00;4.70;;;3.60;;
29812;SDS011;16707;48.106;11.548;2023-02-23T13:42:45;5.30;;;3.10;;
29812;SDS011;16707;48.106;11.548;2023-02-23T13:45:24;4.45;;;3.22;;
29812;SDS011;16707;48.106;11.548;2023-02-23T13:51:07;5.57;;;3.05;;
29812;SDS011;16707;48.106;11.548;2023-02-23T13:53:45;4.38;;;3.38;;
29812;SDS011;16707;48.106;11.548;2023-02-23T13:56:27;3.55;;;2.75;;
29812;SDS011;16707;48.106;11.548;2023-02-23T13:58:57;5.03;;;2.63;;
29812;SDS011;16707;48.106;11.548;2023-02-23T14:01:28;5.07;;;2.50;;
29812;SDS011;16707;48.106;11.548;2023-02-23T14:03:58;7.22;;;2.97;;
29812;SDS011;16707;48.106;11.548;2023-02-23T14:06:29;4.88;;;2.20;;
29812;SDS011;16707;48.106;11.548;2023-02-23T14:09:06;3.78;;;2.53;;
29812;SDS011;16707;48.106;11.548;2023-02-23T14:14:10;3.88;;;1.95;;
29812;SDS011;16707;48.106;11.548;2023-02-23T14:16:41;2.72;;;1.88;;
29812;SDS011;16707;48.106;11.548;2023-02-23T14:19:30;3.47;;;2.00;;
29812;SDS011;16707;48.106;11.548;2023-02-23T14:22:09;3.03;;;1.92;;
29812;SDS011;16707;48.106;11.548;2023-02-23T14:24:39;4.30;;;1.50;;
29812;SDS011;16707;48.106;11.548;2023-02-23T14:30:11;3.70;;;1.83;;
29812;SDS011;16707;48.106;11.548;2023-02-23T14:32:41;2.72;;;1.67;;
29812;SDS011;16707;48.106;11.548;2023-02-23T14:35:34;4.43;;;1.75;;
29812;SDS011;16707;48.106;11.548;2023-02-23T14:38:14;2.20;;;1.30;;
29812;SDS011;16707;48.106;11.548;2023-02-23T14:40:54;2.05;;;1.25;;
29812;SDS011;16707;48.106;11.548;2023-02-23T14:46:11;4.13;;;1.55;;
29812;SDS011;16707;48.106;11.548;2023-02-23T14:48:54;2.80;;;1.73;;
29812;SDS011;16707;48.106;11.548;2023-02-23T14:51:24;4.13;;;1.42;;
29812;SDS011;16707;48.106;11.548;2023-02-23T14:54:19;3.22;;;1.65;;
29812;SDS011;16707;48.106;11.548;2023-02-23T14:56:50;2.10;;;1.45;;
29812;SDS011;16707;48.106;11.548;2023-02-23T14:59:24;2.38;;;1.60;;
29812;SDS011;16707;48.106;11.548;2023-02-23T15:01:54;3.55;;;1.50;;
29812;SDS011;16707;48.106;11.548;2023-02-23T15:04:28;3.38;;;1.92;;
29812;SDS011;16707;48.106;11.548;2023-02-23T15:07:05;3.92;;;1.90;;
29812;SDS011;16707;48.106;11.548;2023-02-23T15:09:45;3.83;;;2.20;;
29812;SDS011;16707;48.106;11.548;2023-02-23T15:12:19;3.38;;;2.00;;
29812;SDS011;16707;48.106;11.548;2023-02-23T15:14:54;3.15;;;1.98;;
29812;SDS011;16707;48.106;11.548;2023-02-23T15:17:26;4.07;;;2.05;;
29812;SDS011;16707;48.106;11.548;2023-02-23T15:19:57;3.28;;;1.75;;
29812;SDS011;16707;48.106;11.548;2023-02-23T15:22:27;5.28;;;2.08;;
29812;SDS011;16707;48.106;11.548;2023-02-23T15:24:59;6.68;;;2.65;;
29812;SDS011;16707;48.106;11.548;2023-02-23T15:27:37;5.15;;;2.33;;
29812;SDS011;16707;48.106;11.548;2023-02-23T15:30:23;4.15;;;2.72;;
29812;SDS011;16707;48.106;11.548;2023-02-23T15:32:58;3.28;;;2.22;;
29812;SDS011;16707;48.106;11.548;2023-02-23T15:35:33;3.90;;;2.60;;
29812;SDS011;16707;48.106;11.548;2023-02-23T15:38:08;6.00;;;2.67;;
29812;SDS011;16707;48.106;11.548;2023-02-23T15:40:42;5.97;;;2.70;;
29812;SDS011;16707;48.106;11.548;2023-02-23T15:43:12;5.20;;;2.58;;
29812;SDS011;16707;48.106;11.548;2023-02-23T15:45:39;5.43;;;2.67;;